Latest Weather Observations for Snowtown

IDS60801

Issued at 12:35 pm CST Saturday 23 August 2014 (issued every 30 minutes, with the page automatically refreshed every 10 minutes)

About weather observations | Map of weather stations | Latest weather observations for SA | Other Formats
Station Details ID: 021133 Name: RAYVILLE PARK Lat: -33.77 Lon: 138.22 Height: 109.1 m
Data from the previous 72 hours. | See also: Recent months at Snowtown
Date/Time
CST
Temp
°C
App
Temp
°C
Dew
Point
Rel
Hum
%
Delta-T
°C
Wind Press
QNH
hPa
Press
MSL
hPa
Rain
since 9 am
mm
Dir
 
Spd
km/h
Gust
km/h
Spd
kts
Gust
kts
23/12:30pm 15.1 10.6 9.9 71 2.7 WSW 24 32 13 17 1025.4 1025.5 0.0
23/12:00pm 15.6 10.9 10.6 72 2.6 WSW 26 37 14 20 1025.4 1025.5 0.0
23/11:30am 16.4 10.8 11.6 73 2.6 W 32 39 17 21 1025.4 1025.5 0.0
23/11:00am 16.9 11.7 10.3 65 3.5 WSW 28 35 15 19 1025.5 1025.6 0.0
23/10:30am 16.4 10.5 6.0 50 5.0 WNW 26 37 14 20 1025.4 1025.5 0.0
23/10:00am 16.1 10.0 6.8 54 4.6 NW 28 39 15 21 1025.2 1025.3 0.0
23/09:30am 15.8 9.7 6.8 55 4.4 NW 28 37 15 20 1024.8 1024.9 0.0
23/09:00am 15.4 9.9 5.9 53 4.6 NW 24 30 13 16 1024.2 1024.3 0.0
23/08:30am 13.6 8.3 6.7 63 3.3 NW 24 33 13 18 1024.1 1024.2 0.0
23/08:00am 11.7 6.2 5.8 67 2.8 NW 24 32 13 17 1024.0 1024.1 0.0
23/07:30am 11.4 7.6 5.7 68 2.6 NNW 15 20 8 11 1023.4 1023.5 0.0
23/07:00am 10.6 6.4 5.8 72 2.2 N 17 22 9 12 1022.9 1023.0 0.0
23/06:30am 11.5 5.1 5.2 65 2.9 NNE 28 35 15 19 1022.5 1022.6 0.0
23/06:00am 11.8 4.6 5.2 64 3.0 NNE 32 37 17 20 1022.0 1022.2 0.0
23/05:30am 11.4 4.6 5.1 65 2.9 N 30 41 16 22 1021.8 1022.0 0.0
23/05:00am 11.6 4.4 4.8 63 3.1 N 32 37 17 20 1021.5 1021.7 0.0
23/04:30am 11.5 4.7 4.9 64 3.0 N 30 35 16 19 1021.3 1021.5 0.0
23/04:00am 11.4 5.0 5.1 65 2.9 N 28 33 15 18 1021.5 1021.7 0.0
23/03:30am 11.1 5.0 5.0 66 2.8 N 26 32 14 17 1021.7 1021.9 0.0
23/03:00am 10.9 4.8 4.8 66 2.8 N 26 32 14 17 1021.9 1022.1 0.0
23/02:30am 7.9 3.5 5.0 82 1.3 N 17 20 9 11 1022.1 1022.3 0.0
23/02:00am 8.6 3.6 4.4 75 1.9 NNE 20 24 11 13 1022.2 1022.4 0.0
23/01:30am 10.2 4.8 4.4 67 2.6 N 22 28 12 15 1022.6 1022.7 0.0
23/01:00am 9.3 4.3 4.5 72 2.1 NNE 20 24 11 13 1022.7 1022.8 0.0
23/12:30am 9.2 3.7 4.2 71 2.2 N 22 26 12 14 1022.8 1022.9 0.0
23/12:00am 8.1 3.3 4.5 78 1.6 N 19 24 10 13 1022.7 1022.8 0.0
 
Date/Time
CST
Temp
°C
App
Temp
°C
Dew
Point
Rel
Hum
%
Delta-T
°C
Wind Press
QNH
hPa
Press
MSL
hPa
Rain
since 9 am
mm
Dir
 
Spd
km/h
Gust
km/h
Spd
kts
Gust
kts
22/11:30pm 8.7 3.6 4.3 74 1.9 N 20 24 11 13 1023.1 1023.2 0.0
22/11:00pm 8.3 3.2 4.3 76 1.8 N 20 24 11 13 1023.0 1023.1 0.0
22/10:30pm 8.7 3.3 4.7 76 1.8 N 22 26 12 14 1023.1 1023.2 0.0
22/10:00pm 7.9 2.9 4.8 81 1.4 N 20 24 11 13 1023.4 1023.5 0.0
22/09:30pm 4.8 0.2 3.5 91 0.5 N 17 17 9 9 1023.4 1023.5 0.0
22/09:00pm 4.7 0.0 3.4 91 0.5 N 17 19 9 10 1023.4 1023.5 0.0
22/08:30pm 5.0 0.7 3.5 90 0.6 N 15 17 8 9 1023.3 1023.4 0.0
22/08:00pm 5.9 2.2 4.4 90 0.6 N 13 15 7 8 1023.2 1023.3 0.0
22/07:30pm 6.4 3.2 4.9 90 0.7 N 11 13 6 7 1023.0 1023.1 0.0
22/07:00pm 6.7 3.5 5.0 89 0.7 NW 11 15 6 8 1022.7 1022.8 0.0
22/06:30pm 7.8 4.0 5.9 88 0.9 NW 15 17 8 9 1022.7 1022.8 0.0
22/06:00pm 10.0 7.7 7.4 84 1.2 N 9 13 5 7 1022.5 1022.6 0.0
22/05:30pm 14.4 12.7 10.0 75 2.3 N 9 9 5 5 1022.5 1022.6 0.0
22/05:00pm 16.5 14.6 10.4 67 3.2 N 11 13 6 7 1022.2 1022.4 0.0
22/04:30pm 18.0 15.7 9.1 56 4.6 N 11 15 6 8 1022.1 1022.3 0.0
22/04:00pm 18.6 15.2 7.7 49 5.6 N 15 20 8 11 1022.1 1022.3 0.0
22/03:30pm 19.2 15.7 7.3 46 6.0 N 15 19 8 10 1022.1 1022.3 0.0
22/03:00pm 19.4 15.3 6.2 42 6.6 N 17 24 9 13 1022.2 1022.4 0.0
22/02:30pm 19.5 15.6 6.9 44 6.4 N 17 30 9 16 1022.3 1022.5 0.0
22/02:00pm 19.6 15.8 7.7 46 6.1 N 17 24 9 13 1022.8 1022.9 0.0
22/01:30pm 19.6 16.1 8.6 49 5.7 N 17 24 9 13 1023.2 1023.3 0.0
22/01:00pm 19.2 15.1 8.8 51 5.5 NNE 20 28 11 15 1023.7 1023.8 0.0
22/12:30pm 19.1 15.4 10.1 56 4.8 NNE 20 28 11 15 1024.1 1024.2 0.0
22/12:00pm 18.3 14.1 8.3 52 5.1 N 20 28 11 15 1024.8 1024.9 0.0
22/11:30am 17.7 13.8 9.3 58 4.4 N 20 28 11 15 1025.3 1025.4 0.0
22/11:00am 16.6 11.9 9.1 61 3.9 N 24 30 13 16 1025.6 1025.7 0.0
22/10:30am 15.5 11.6 8.5 63 3.5 N 19 24 10 13 1026.1 1026.2 0.0
22/10:00am 14.4 11.4 9.2 71 2.7 NNE 15 20 8 11 1026.3 1026.4 0.0
22/09:30am 12.9 9.7 8.4 74 2.2 NNE 15 19 8 10 1026.5 1026.6 0.0
22/09:00am 11.8 9.3 8.3 79 1.7 NE 11 17 6 9 1026.6 1026.7 0.0
22/08:30am 10.1 7.5 7.9 86 1.1 NNE 11 15 6 8 1026.6 1026.7 0.0
22/08:00am 6.1 3.8 5.5 96 0.3 NNE 7 9 4 5 1026.4 1026.5 0.0
22/07:30am 3.3 0.0 2.7 96 0.2 N 9 13 5 7 1026.2 1026.3 0.0
22/07:00am 1.7 -1.3 1.1 96 0.2 N 6 7 3 4 1025.7 1025.8 0.0
22/06:30am 1.5 -0.7 0.8 95 0.3 N 2 7 1 4 1025.4 1025.5 0.0
22/06:00am 3.1 -1.7 2.7 97 0.2 N 17 17 9 9 1025.0 1025.1 0.0
22/05:30am 1.6 -1.9 1.0 96 0.2 N 9 13 5 7 1024.7 1024.8 0.0
22/05:00am 1.0 -2.6 0.4 96 0.2 N 9 13 5 7 1024.7 1024.8 0.0
22/04:30am 1.6 -1.0 0.9 95 0.3 N 4 7 2 4 1024.5 1024.6 0.0
22/04:00am 2.6 0.9 2.0 96 0.2 CALM 0 0 0 0 1024.4 1024.5 0.0
22/03:30am 3.1 -1.0 2.4 95 0.3 N 13 15 7 8 1024.2 1024.3 0.0
22/03:00am 3.5 -0.2 2.6 94 0.4 N 11 11 6 6 1024.2 1024.3 0.0
22/02:30am 4.4 0.8 3.2 92 0.5 N 11 13 6 7 1024.5 1024.6 0.0
22/02:00am 5.8 1.3 4.3 90 0.6 N 17 19 9 10 1024.9 1025.0 0.0
22/01:30am 5.6 1.2 4.6 93 0.4 NNW 17 19 9 10 1025.1 1025.2 0.0
22/01:00am 5.0 1.2 4.0 93 0.4 NNW 13 15 7 8 1025.2 1025.3 0.0
22/12:30am 5.7 1.7 4.7 93 0.4 NNW 15 17 8 9 1025.4 1025.5 0.0
22/12:00am 5.1 1.4 4.2 94 0.4 NNW 13 15 7 8 1025.5 1025.6 0.0
 
Date/Time
CST
Temp
°C
App
Temp
°C
Dew
Point
Rel
Hum
%
Delta-T
°C
Wind Press
QNH
hPa
Press
MSL
hPa
Rain
since 9 am
mm
Dir
 
Spd
km/h
Gust
km/h
Spd
kts
Gust
kts
21/11:30pm 5.4 1.7 4.5 94 0.4 NNW 13 13 7 7 1025.5 1025.6 0.0
21/11:00pm 5.3 2.0 4.4 94 0.4 N 11 13 6 7 1025.5 1025.6 0.0
21/10:30pm 5.2 1.5 4.5 95 0.3 NNW 13 13 7 7 1025.5 1025.6 0.0
21/10:00pm 5.0 1.3 4.4 96 0.3 NNW 13 17 7 9 1025.4 1025.5 0.0
21/09:30pm 5.4 3.1 4.7 95 0.3 NNE 6 7 3 4 1025.4 1025.5 0.0
21/09:00pm 6.1 3.4 5.5 96 0.3 NNW 9 11 5 6 1025.3 1025.4 0.0
21/08:30pm 5.7 4.2 5.0 95 0.3 E 2 7 1 4 1025.2 1025.3 0.0
21/08:00pm 6.3 4.9 5.7 96 0.3 E 2 7 1 4 1024.9 1025.0 0.0
21/07:30pm 6.9 6.0 6.2 95 0.3 CALM 0 0 0 0 1024.6 1024.7 0.0
21/07:00pm 7.8 5.7 6.7 93 0.5 E 7 7 4 4 1024.3 1024.4 0.0
21/06:30pm 9.5 7.9 7.8 89 0.8 E 6 9 3 5 1024.1 1024.2 0.0
21/06:00pm 12.9 11.2 9.9 82 1.5 ESE 9 11 5 6 1023.8 1023.9 0.0
21/05:30pm 14.7 13.9 11.7 82 1.6 ESE 7 9 4 5 1023.6 1023.7 0.0
21/05:00pm 16.4 15.3 12.0 75 2.4 E 9 9 5 5 1023.5 1023.6 0.0
21/04:30pm 16.6 17.3 12.2 75 2.4 CALM 0 0 0 0 1023.3 1023.4 0.0
21/04:00pm 16.7 16.1 10.5 67 3.3 NNE 4 6 2 3 1023.0 1023.1 0.0
21/03:30pm 17.1 16.1 10.2 64 3.7 NNE 6 7 3 4 1023.0 1023.1 0.0
21/03:00pm 17.2 17.1 9.6 61 4.0 CALM 0 0 0 0 1023.1 1023.2 0.0
21/02:30pm 17.5 17.5 9.7 60 4.1 CALM 0 0 0 0 1023.3 1023.4 0.0
21/02:00pm 16.6 16.6 11.1 70 3.0 NNE 2 7 1 4 1023.5 1023.6 0.0
21/01:30pm 16.1 14.6 9.3 64 3.5 NE 7 9 4 5 1023.7 1023.8 0.0
21/01:00pm 18.1 15.9 10.7 62 4.0 ENE 13 19 7 10 1024.0 1024.1 0.0
21/12:30pm 17.3 14.4 9.7 61 4.0 NE 15 20 8 11 1024.6 1024.7 0.0
21/12:00pm 17.1 15.6 10.5 65 3.5 E 9 13 5 7 1025.1 1025.2 0.0
21/11:30am 15.9 14.6 9.3 65 3.4 E 6 9 3 5 1025.6 1025.7 0.0
21/11:00am 14.9 13.4 8.6 66 3.2 NE 6 9 3 5 1026.0 1026.1 0.0
21/10:30am 12.6 10.9 7.5 71 2.5 NNE 6 7 3 4 1026.4 1026.5 0.0
21/10:00am 12.7 10.2 6.7 67 2.9 N 9 13 5 7 1026.5 1026.6 0.0
21/09:30am 11.2 9.2 7.1 76 2.0 N 7 9 4 5 1026.7 1026.8 0.0
21/09:00am 10.6 9.6 7.5 81 1.5 NNW 2 6 1 3 1026.8 1026.9 0.0
21/08:30am 8.2 7.4 6.7 90 0.7 CALM 0 0 0 0 1026.8 1026.9 0.0
21/08:00am 6.2 5.3 6.1 99 0.0 CALM 0 0 0 0 1026.7 1026.8 0.0
21/07:30am 2.5 0.9 2.2 98 0.1 CALM 0 7 0 4 1026.6 1026.7 0.0
21/07:00am 1.1 -1.9 0.7 97 0.1 NNW 6 7 3 4 1026.4 1026.5 0.0
21/06:30am 1.2 -0.7 0.6 96 0.2 CALM 0 0 0 0 1026.3 1026.4 0.0
21/06:00am 2.1 0.3 1.4 95 0.3 CALM 0 0 0 0 1026.0 1026.1 0.0
21/05:30am 2.8 1.1 2.1 95 0.3 CALM 0 0 0 0 1025.9 1026.0 0.0
21/05:00am 3.2 1.6 2.5 95 0.3 CALM 0 0 0 0 1025.8 1025.9 0.0
21/04:30am 3.5 0.8 2.9 96 0.2 N 6 9 3 5 1025.9 1026.0 0.0
21/04:00am 3.0 0.0 2.1 94 0.4 N 7 9 4 5 1025.8 1025.9 0.0
21/03:30am 4.1 0.2 3.4 95 0.3 N 13 15 7 8 1025.9 1026.0 0.0
21/03:00am 3.9 0.0 3.2 95 0.3 NNW 13 15 7 8 1026.0 1026.1 0.0
21/02:30am 4.2 0.7 3.5 95 0.3 NNW 11 13 6 7 1026.1 1026.2 0.0
21/02:00am 4.0 0.5 3.6 97 0.2 NNW 11 13 6 7 1026.3 1026.4 0.0
21/01:30am 3.2 0.0 2.8 97 0.2 W 9 11 5 6 1026.4 1026.5 0.0
21/01:00am 2.4 -0.6 1.8 96 0.2 W 7 11 4 6 1026.4 1026.5 0.0
21/12:30am 2.9 -0.8 2.2 95 0.3 WSW 11 13 6 7 1026.4 1026.5 0.0
21/12:00am 3.5 -0.1 2.9 96 0.2 WSW 11 13 6 7 1026.4 1026.5 0.0
 
Date/Time
CST
Temp
°C
App
Temp
°C
Dew
Point
Rel
Hum
%
Delta-T
°C
Wind Press
QNH
hPa
Press
MSL
hPa
Rain
since 9 am
mm
Dir
 
Spd
km/h
Gust
km/h
Spd
kts
Gust
kts
20/11:30pm 3.7 -0.3 3.1 96 0.2 SW 13 15 7 8 1026.6 1026.7 0.0
20/11:00pm 3.6 -0.4 2.9 95 0.3 SW 13 15 7 8 1026.6 1026.7 0.0
20/10:30pm 4.1 0.5 3.2 94 0.4 WSW 11 13 6 7 1026.6 1026.7 0.0
20/10:00pm 4.4 1.3 3.5 94 0.4 WSW 9 13 5 7 1026.5 1026.6 0.0
20/09:30pm 4.7 0.9 4.0 95 0.3 WSW 13 17 7 9 1026.4 1026.5 0.0
20/09:00pm 4.9 1.5 4.0 94 0.4 SW 11 15 6 8 1026.3 1026.4 0.0
20/08:30pm 5.2 1.5 4.3 94 0.4 WSW 13 15 7 8 1026.2 1026.3 0.0
20/08:00pm 6.2 2.9 4.7 90 0.7 SW 11 13 6 7 1026.1 1026.2 0.0
20/07:30pm 8.6 4.5 6.4 86 1.0 S 17 20 9 11 1025.8 1025.9 0.0
20/07:00pm 9.3 4.7 6.6 83 1.3 S 20 30 11 16 1025.6 1025.7 0.0
20/06:30pm 9.6 5.2 6.7 82 1.4 S 19 28 10 15 1025.4 1025.5 0.0
20/06:00pm 9.9 6.4 7.2 83 1.3 SSW 15 20 8 11 1025.1 1025.2 0.0
20/05:30pm 11.0 7.2 7.5 79 1.7 S 17 22 9 12 1024.8 1024.9 0.0
20/05:00pm 12.3 7.9 7.6 73 2.3 SSE 20 28 11 15 1024.6 1024.7 0.0
20/04:30pm 13.2 8.2 7.9 70 2.6 SSE 24 32 13 17 1024.6 1024.7 0.0
20/04:00pm 13.3 9.5 9.0 75 2.2 SSE 19 22 10 12 1024.6 1024.7 0.0
20/03:30pm 13.4 9.3 7.8 69 2.8 SSE 19 22 10 12 1024.7 1024.8 0.0
20/03:00pm 14.2 11.2 7.9 66 3.1 S 13 20 7 11 1024.8 1024.9 0.0
20/02:30pm 14.3 11.4 8.0 66 3.1 SE 13 17 7 9 1024.7 1024.8 0.0
20/02:00pm 15.3 14.1 6.3 55 4.4 E 2 7 1 4 1024.8 1024.9 0.0
20/01:30pm 15.0 13.2 8.0 63 3.5 ENE 7 15 4 8 1025.0 1025.1 0.0
20/01:00pm 14.3 12.2 8.3 67 3.0 NE 9 17 5 9 1025.4 1025.5 0.0

Other Formats:

Comma delimited format used in spreadsheet applications
http://www.bom.gov.au/fwo/IDS60801/IDS60801.95670.axf

JavaScript Object Notation format (JSON) in row-major order
http://www.bom.gov.au/fwo/IDS60801/IDS60801.95670.json